Time;durP1;ratioP1;P1;durP2;ratioP2;P2;SDS_P1;SDS_P2;PMS_P1;PMS_P2;Temp;Humidity;BMP_temperature;BMP_pressure;BME280_temperature;BME280_humidity;BME280_pressure;Samples;Min_cycle;Max_cycle;Signal;HPM_P1;HPM_P2
2022/05/01 00:00:57;;;;;;;13.23;5.43;;;;;;;13.16;58.57;95620.22;5035795;28;20055;-82
2022/05/01 00:03:31;;;;;;;7.43;5.20;;;;;;;12.41;58.84;95548.59;5017323;28;20506;-81
2022/05/01 00:05:58;;;;;;;17.27;5.35;;;;;;;12.80;58.52;95617.81;5034823;28;20040;-81
2022/05/01 00:08:24;;;;;;;14.82;5.13;;;;;;;12.90;58.49;95630.22;5035201;28;20096;-82
2022/05/01 00:10:50;;;;;;;8.50;4.80;;;;;;;11.80;58.25;95431.19;5035032;28;20033;-82
2022/05/01 00:13:16;;;;;;;9.13;4.85;;;;;;;12.79;58.35;95591.47;5034930;28;20033;-82
2022/05/01 00:15:42;;;;;;;12.15;5.13;;;;;;;12.14;58.28;95500.34;5033242;28;20495;-81
2022/05/01 00:18:08;;;;;;;9.60;5.10;;;;;;;12.79;59.10;95602.91;5034330;28;20039;-82
2022/05/01 00:20:33;;;;;;;7.53;5.22;;;;;;;12.21;58.75;95514.94;5034697;28;20033;-82
2022/05/01 00:22:59;;;;;;;8.40;5.30;;;;;;;11.86;58.82;95454.00;5034470;28;20466;-82
2022/05/01 00:25:25;;;;;;;9.82;5.60;;;;;;;12.32;59.48;95547.59;5035104;28;20095;-81
2022/05/01 00:27:50;;;;;;;10.65;5.78;;;;;;;12.24;59.84;95529.56;5016826;28;20044;-81
2022/05/01 00:30:15;;;;;;;10.05;6.47;;;;;;;12.42;59.81;95560.03;5035024;28;20217;-81
2022/05/01 00:38:09;;;;;;;10.45;6.65;;;;;;;11.97;60.78;95544.06;5035300;28;20107;-82
2022/05/01 00:40:35;;;;;;;13.07;6.95;;;;;;;12.07;59.96;95526.44;5016005;28;20056;-82
2022/05/01 00:43:02;;;;;;;17.77;7.72;;;;;;;12.12;60.25;95519.25;5034808;28;20041;-82
2022/05/01 00:45:28;;;;;;;13.50;7.68;;;;;;;11.85;60.92;95526.81;5016169;28;20040;-81
2022/05/01 00:47:53;;;;;;;15.05;7.43;;;;;;;12.10;60.13;95521.41;5017182;28;20327;-82
2022/05/01 00:50:19;;;;;;;11.63;7.47;;;;;;;11.92;60.89;95506.06;5034666;28;20029;-81
2022/05/01 00:52:46;;;;;;;10.30;7.10;;;;;;;11.80;61.05;95505.59;5016375;28;20071;-81
2022/05/01 00:55:13;;;;;;;17.27;8.40;;;;;;;12.02;61.39;95569.00;5015930;28;20045;-81
2022/05/01 00:57:38;;;;;;;12.52;8.20;;;;;;;11.74;61.56;95496.03;5017404;28;20544;-81
2022/05/01 01:00:04;;;;;;;9.93;6.82;;;;;;;11.89;60.75;95509.28;5038056;28;20115;-82
2022/05/01 01:02:31;;;;;;;13.38;7.65;;;;;;;12.42;61.56;95602.59;5037374;28;20866;-82
2022/05/01 01:04:57;;;;;;;17.02;7.82;;;;;;;11.47;62.36;95483.09;5019413;28;20037;-81
2022/05/01 01:07:26;;;;;;;10.65;7.28;;;;;;;12.17;62.65;95585.69;5019304;28;20600;-82
2022/05/01 01:09:51;;;;;;;18.08;6.85;;;;;;;12.10;61.72;95536.53;5037703;28;20037;-81
2022/05/01 01:15:09;;;;;;;14.00;8.27;;;;;;;11.78;61.52;95497.09;5037853;28;20052;-81
2022/05/01 01:17:43;;;;;;;11.63;7.88;;;;;;;12.43;62.17;95599.69;5019497;28;20590;-82
2022/05/01 01:20:12;;;;;;;15.13;8.73;;;;;;;11.46;62.66;95473.53;5038399;28;20066;-82
2022/05/01 01:22:39;;;;;;;16.50;8.50;;;;;;;12.45;61.99;95602.84;5019616;28;20098;-82
2022/05/01 01:25:09;;;;;;;16.20;8.63;;;;;;;12.40;62.04;95602.88;5037900;28;20055;-82
2022/05/01 01:27:34;;;;;;;16.45;8.80;;;;;;;12.45;62.39;95596.72;5037809;28;20033;-82
2022/05/01 01:32:45;;;;;;;16.38;9.18;;;;;;;11.60;63.61;95522.38;5021144;28;20048;-82
2022/05/01 01:35:12;;;;;;;14.07;9.07;;;;;;;11.28;63.42;95456.38;5036450;28;20068;-81
2022/05/01 01:37:37;;;;;;;13.88;9.10;;;;;;;12.23;62.88;95589.13;5018018;28;20097;-81
2022/05/01 01:40:03;;;;;;;19.55;10.20;;;;;;;11.68;62.95;95510.38;5017665;28;20544;-81
2022/05/01 01:42:34;;;;;;;17.25;10.27;;;;;;;12.11;63.52;95589.44;5035871;28;20067;-81
2022/05/01 01:45:01;;;;;;;16.77;10.38;;;;;;;10.89;63.93;95404.97;5036235;28;20450;-81
2022/05/01 01:47:27;;;;;;;24.08;11.30;;;;;;;11.73;64.79;95568.84;5035867;28;20053;-82
2022/05/01 01:49:52;;;;;;;20.60;10.85;;;;;;;11.61;64.45;95551.31;5035965;28;20479;-81
2022/05/01 01:52:17;;;;;;;17.75;11.10;;;;;;;11.59;63.15;95494.22;5035796;28;20107;-81
2022/05/01 01:54:43;;;;;;;16.85;10.98;;;;;;;11.61;64.05;95524.75;5036915;28;20056;-81
2022/05/01 01:57:08;;;;;;;15.15;11.05;;;;;;;11.49;63.51;95484.44;5017412;28;20041;-81
2022/05/01 01:59:34;;;;;;;19.00;11.18;;;;;;;11.15;63.20;95441.00;5035559;28;20047;-81
2022/05/01 02:02:01;;;;;;;17.77;11.18;;;;;;;11.44;63.36;95454.44;5035351;28;20033;-81
2022/05/01 02:04:26;;;;;;;22.45;11.35;;;;;;;11.39;63.59;95465.88;5017305;28;20469;-81
2022/05/01 02:06:52;;;;;;;21.20;12.45;;;;;;;11.86;63.31;95523.09;5017898;28;20128;-81
2022/05/01 02:09:18;;;;;;;20.67;12.45;;;;;;;11.36;64.09;95486.88;5035096;28;20116;-81
2022/05/01 02:11:43;;;;;;;18.17;11.52;;;;;;;12.06;63.99;95591.31;5016793;28;20037;-81
2022/05/01 02:14:10;;;;;;;20.92;11.38;;;;;;;11.55;64.13;95514.41;5035213;28;20486;-81
2022/05/01 02:16:36;;;;;;;25.55;12.75;;;;;;;11.08;64.10;95459.84;5035579;28;20045;-81
2022/05/01 02:19:01;;;;;;;24.63;13.35;;;;;;;11.15;64.72;95468.34;5016649;28;20118;-81
2022/05/01 02:21:34;;;;;;;34.15;14.23;;;;;;;11.28;64.56;95467.00;5035088;28;20048;-81
2022/05/01 02:24:01;;;;;;;23.13;14.13;;;;;;;10.86;65.43;95434.69;5034806;28;20067;-81
2022/05/01 02:26:27;;;;;;;31.02;14.98;;;;;;;10.88;65.02;95441.34;5035512;28;20044;-81
2022/05/01 02:28:53;;;;;;;27.23;15.90;;;;;;;11.22;65.79;95523.78;5016599;28;20427;-81
2022/05/01 02:31:18;;;;;;;37.60;16.35;;;;;;;11.65;65.29;95558.75;5034706;28;20033;-81
2022/05/01 02:33:44;;;;;;;37.40;15.43;;;;;;;11.35;65.64;95519.81;5016764;28;20040;-81
2022/05/01 02:36:10;;;;;;;35.05;16.05;;;;;;;11.27;66.18;95542.38;5034510;28;20140;-81
2022/05/01 02:38:36;;;;;;;31.63;14.95;;;;;;;10.71;65.42;95438.16;5034834;28;20126;-81
2022/05/01 02:41:02;;;;;;;28.02;15.55;;;;;;;11.75;65.31;95567.50;5034004;28;20043;-81
2022/05/01 02:43:28;;;;;;;30.30;15.18;;;;;;;10.54;67.10;95456.22;5034155;28;20036;-81
2022/05/01 02:45:54;;;;;;;29.23;15.90;;;;;;;11.49;66.35;95576.59;5016748;28;20033;-81
2022/05/01 02:48:19;;;;;;;27.30;14.95;;;;;;;11.30;65.09;95517.13;5034297;28;20033;-81
2022/05/01 02:50:44;;;;;;;22.13;14.52;;;;;;;11.63;66.29;95580.28;5035130;28;20122;-81
2022/05/01 02:53:10;;;;;;;20.40;14.30;;;;;;;10.87;66.10;95457.50;5034441;28;20098;-81
2022/05/01 02:55:35;;;;;;;24.48;14.00;;;;;;;10.68;66.62;95441.38;5034065;28;20403;-81
2022/05/01 02:58:02;;;;;;;27.90;14.93;;;;;;;10.46;68.04;95465.50;5016065;28;20033;-81
2022/05/01 03:00:27;;;;;;;24.98;13.52;;;;;;;9.48;66.80;95296.13;5034002;28;20123;-81
2022/05/01 03:02:55;;;;;;;27.13;13.57;;;;;;;11.38;66.68;95575.00;5015802;28;20396;-81
2022/05/01 03:05:21;;;;;;;21.23;13.48;;;;;;;10.79;66.67;95502.09;5034253;28;20435;-82
2022/05/01 03:07:48;;;;;;;20.48;13.23;;;;;;;10.93;66.87;95502.34;5016513;28;20344;-81
2022/05/01 03:10:13;;;;;;;19.20;14.23;;;;;;;11.37;66.76;95571.56;5016373;28;20582;-81
2022/05/01 03:12:39;;;;;;;21.38;14.45;;;;;;;10.75;65.97;95457.81;5034286;28;20029;-81
2022/05/01 03:15:06;;;;;;;22.40;15.00;;;;;;;11.17;65.24;95499.91;5034613;28;20089;-81
2022/05/01 03:22:10;;;;;;;25.48;14.18;;;;;;;11.09;65.79;95493.31;5033997;28;20102;-81
2022/05/01 03:23:02;;;;;;;19.05;13.68;;;;;;;11.18;65.27;95489.03;4992027;28;20167;-81
2022/05/01 03:25:28;;;;;;;19.30;13.32;;;;;;;11.72;65.26;95577.88;5034140;28;20418;-81
2022/05/01 03:27:54;;;;;;;23.38;13.77;;;;;;;11.09;65.24;95482.69;5033776;28;20044;-81
2022/05/01 03:30:21;;;;;;;18.70;14.05;;;;;;;11.64;65.62;95576.56;5032389;28;20370;-81
2022/05/01 03:32:46;;;;;;;19.55;13.85;;;;;;;11.76;65.44;95594.88;5033723;28;20029;-81
2022/05/01 03:35:15;;;;;;;20.45;13.65;;;;;;;11.41;64.75;95526.69;5015115;28;20118;-81
2022/05/01 03:37:42;;;;;;;22.55;13.88;;;;;;;10.89;65.12;95468.66;5033429;28;20029;-81
2022/05/01 03:40:09;;;;;;;20.40;14.30;;;;;;;10.82;65.29;95453.03;5033887;28;20055;-81
2022/05/01 03:42:34;;;;;;;20.13;13.30;;;;;;;11.19;65.15;95505.75;5033356;28;20087;-81
2022/05/01 03:45:00;;;;;;;23.67;14.15;;;;;;;10.73;65.09;95428.09;5033519;28;20487;-81
2022/05/01 03:47:25;;;;;;;28.17;14.77;;;;;;;10.88;65.41;95478.47;5015370;28;20070;-81
2022/05/01 03:49:51;;;;;;;20.60;14.20;;;;;;;11.69;66.00;95605.75;5033958;28;20511;-81
2022/05/01 03:52:16;;;;;;;21.00;14.73;;;;;;;10.87;65.60;95490.16;5033226;28;20120;-81
2022/05/01 03:54:41;;;;;;;21.08;13.50;;;;;;;11.19;65.69;95529.66;5015733;28;20123;-81
2022/05/01 03:57:09;;;;;;;20.58;15.45;;;;;;;10.77;66.23;95506.88;5033954;28;20056;-81
2022/05/01 03:59:35;;;;;;;22.55;14.45;;;;;;;11.60;66.48;95604.72;5033381;28;20037;-81
2022/05/01 04:02:00;;;;;;;20.52;13.52;;;;;;;11.38;66.20;95572.34;5033027;28;20044;-81
2022/05/01 04:04:26;;;;;;;21.80;15.20;;;;;;;10.60;66.33;95448.00;5033482;28;20063;-81
2022/05/01 04:06:51;;;;;;;24.35;14.23;;;;;;;11.64;66.14;95615.63;5015195;28;20573;-81
2022/05/01 04:09:16;;;;;;;23.60;15.20;;;;;;;11.49;65.54;95580.06;5015475;28;20514;-81
2022/05/01 04:11:42;;;;;;;22.65;14.73;;;;;;;11.02;65.70;95508.72;5033593;28;20032;-81
2022/05/01 04:14:07;;;;;;;29.55;16.83;;;;;;;11.03;65.80;95539.50;5015159;28;20182;-81
2022/05/01 04:16:33;;;;;;;26.70;16.02;;;;;;;11.26;65.96;95545.31;5033004;28;20418;-81
2022/05/01 04:18:58;;;;;;;21.25;15.63;;;;;;;11.40;65.36;95551.66;5014424;28;20498;-81
2022/05/01 04:21:24;;;;;;;23.30;14.98;;;;;;;11.46;66.10;95623.06;5033056;28;20124;-81
2022/05/01 04:23:50;;;;;;;24.67;15.95;;;;;;;11.81;66.01;95640.06;5032821;28;20060;-81
2022/05/01 04:26:15;;;;;;;20.90;15.13;;;;;;;11.24;65.94;95561.50;5033431;28;20499;-81
2022/05/01 04:29:36;;;;;;;20.45;14.57;;;;;;;11.09;65.77;95534.97;5032904;28;20047;-81
2022/05/01 04:31:27;;;;;;;20.88;14.98;;;;;;;11.84;65.63;95634.97;5033043;28;20041;-81
2022/05/01 04:33:53;;;;;;;29.33;15.77;;;;;;;11.63;67.17;95629.94;5037704;28;20033;-81
2022/05/01 04:36:19;;;;;;;23.00;15.30;;;;;;;11.63;66.19;95620.13;5037600;28;20625;-81
2022/05/01 04:38:44;;;;;;;22.88;14.30;;;;;;;11.45;65.95;95584.28;5037643;28;20132;-81
2022/05/01 04:41:10;;;;;;;28.08;14.75;;;;;;;11.90;65.61;95625.91;5037284;28;20623;-81
2022/05/01 04:43:36;;;;;;;19.15;14.60;;;;;;;11.66;66.29;95622.25;5037590;28;20538;-81
2022/05/01 04:46:02;;;;;;;20.08;15.05;;;;;;;11.05;66.42;95525.97;5037024;28;20037;-81
2022/05/01 04:48:28;;;;;;;19.60;14.32;;;;;;;10.96;66.18;95485.09;5019303;28;20136;-81
2022/05/01 04:50:54;;;;;;;21.00;14.52;;;;;;;11.12;65.52;95481.38;5039569;28;20869;-81
2022/05/01 04:53:21;;;;;;;24.33;16.15;;;;;;;10.95;65.93;95467.59;5018808;28;20040;-81
2022/05/01 04:55:49;;;;;;;24.70;14.60;;;;;;;12.10;65.80;95613.66;5019249;28;20045;-81
2022/05/01 04:58:15;;;;;;;20.75;14.57;;;;;;;12.21;65.27;95615.97;5037086;28;20028;-81
2022/05/01 05:00:42;;;;;;;21.88;14.10;;;;;;;11.83;65.68;95560.84;5036608;28;20036;-82
2022/05/01 05:03:08;;;;;;;22.48;13.45;;;;;;;12.38;65.01;95626.28;5037049;28;20570;-81
2022/05/01 05:05:36;;;;;;;24.75;14.10;;;;;;;12.38;64.47;95611.13;5037136;28;20498;-81
2022/05/01 05:10:48;;;;;;;23.35;13.48;;;;;;;11.88;64.55;95524.44;5036591;28;20261;-81
2022/05/01 05:13:15;;;;;;;23.88;14.50;;;;;;;12.29;64.62;95590.69;5018118;28;20046;-81
2022/05/01 05:15:41;;;;;;;24.38;15.15;;;;;;;11.87;64.86;95545.97;5036369;28;20475;-81
2022/05/01 05:18:07;;;;;;;16.98;13.05;;;;;;;12.28;65.38;95597.09;5036003;28;20037;-81
2022/05/01 05:20:33;;;;;;;18.77;13.57;;;;;;;12.67;64.99;95640.50;5036347;28;20036;-81
2022/05/01 05:22:58;;;;;;;25.42;14.00;;;;;;;12.22;65.32;95572.38;5036658;28;20260;-82
2022/05/01 05:25:24;;;;;;;19.30;13.45;;;;;;;11.96;64.84;95509.78;5035930;28;20119;-81
2022/05/01 05:27:49;;;;;;;21.02;14.35;;;;;;;12.51;65.19;95599.06;5035805;28;20025;-82
2022/05/01 05:30:15;;;;;;;21.73;14.27;;;;;;;12.79;64.68;95628.72;5035859;28;20112;-81
2022/05/01 05:32:40;;;;;;;17.88;13.60;;;;;;;11.98;64.42;95481.03;5037691;28;20533;-82
2022/05/01 05:35:06;;;;;;;18.55;12.93;;;;;;;12.34;65.65;95575.50;5036033;28;20048;-81
2022/05/01 05:37:32;;;;;;;26.45;13.85;;;;;;;12.45;65.71;95583.41;5036109;28;20028;-81
2022/05/01 05:39:58;;;;;;;21.95;13.15;;;;;;;11.86;66.44;95526.56;5036030;28;20086;-81
2022/05/01 05:42:24;;;;;;;16.00;12.68;;;;;;;12.77;65.54;95631.66;5018637;28;20443;-81
2022/05/01 05:44:50;;;;;;;22.50;11.95;;;;;;;12.44;66.15;95632.34;5035869;28;20028;-81
2022/05/01 05:47:16;;;;;;;23.33;12.48;;;;;;;11.74;66.30;95511.97;5017743;28;20500;-81
2022/05/01 05:49:41;;;;;;;17.60;12.10;;;;;;;12.25;65.80;95547.91;5018171;28;20444;-81
2022/05/01 05:52:07;;;;;;;17.17;12.60;;;;;;;12.55;65.11;95575.38;5035362;28;20037;-81
2022/05/01 05:54:33;;;;;;;18.63;12.18;;;;;;;12.75;65.17;95597.31;5036325;28;20044;-81
2022/05/01 05:56:58;;;;;;;16.70;12.32;;;;;;;12.99;65.36;95650.69;5035667;28;20115;-81
2022/05/01 05:59:24;;;;;;;17.90;12.60;;;;;;;12.24;65.45;95524.22;5035466;28;20054;-81
2022/05/01 06:01:49;;;;;;;17.05;12.15;;;;;;;11.99;65.44;95503.91;5035994;28;20025;-81
2022/05/01 06:04:15;;;;;;;19.40;11.93;;;;;;;12.76;65.25;95640.72;5017572;28;20150;-81
2022/05/01 06:06:40;;;;;;;17.00;11.73;;;;;;;12.87;64.84;95644.13;5017428;28;20036;-81
2022/05/01 06:09:07;;;;;;;23.40;11.98;;;;;;;12.33;64.93;95541.22;5017143;28;20811;-81
2022/05/01 06:11:35;;;;;;;18.25;12.32;;;;;;;13.29;64.06;95646.22;5017860;28;20036;-81
2022/05/01 06:14:01;;;;;;;18.52;12.55;;;;;;;12.45;64.10;95523.03;5036500;28;20083;-81
2022/05/01 06:16:27;;;;;;;18.70;12.80;;;;;;;12.89;63.78;95578.84;5017781;28;20071;-81
2022/05/01 06:18:52;;;;;;;18.85;11.20;;;;;;;13.42;63.36;95650.94;5035322;28;20037;-81
2022/05/01 06:21:18;;;;;;;18.52;11.48;;;;;;;12.77;63.61;95547.28;5035055;28;20339;-82
2022/05/01 06:23:47;;;;;;;13.52;10.73;;;;;;;13.11;63.17;95568.59;5035332;28;20134;-81
2022/05/01 06:26:13;;;;;;;17.70;10.98;;;;;;;12.81;63.37;95522.78;5017583;28;20044;-81
2022/05/01 06:28:38;;;;;;;20.85;12.18;;;;;;;13.13;62.89;95570.97;5035668;28;20090;-82
2022/05/01 06:31:04;;;;;;;21.73;12.27;;;;;;;12.86;63.09;95542.16;5016650;28;20589;-82
2022/05/01 06:33:33;;;;;;;17.48;11.65;;;;;;;13.70;62.49;95646.69;5034856;28;20036;-81
2022/05/01 06:35:58;;;;;;;23.55;11.13;;;;;;;13.25;62.56;95565.31;5034100;28;20086;-81
2022/05/01 06:38:24;;;;;;;16.25;11.23;;;;;;;13.13;61.53;95531.03;5035006;28;20563;-81
2022/05/01 06:40:49;;;;;;;13.35;10.65;;;;;;;13.33;61.42;95583.34;5016306;28;20047;-81
2022/05/01 06:43:17;;;;;;;21.90;11.75;;;;;;;13.38;61.64;95569.97;5016367;28;20098;-82
2022/05/01 06:45:43;;;;;;;13.70;10.73;;;;;;;13.09;60.98;95528.13;5035085;28;20029;-81
2022/05/01 06:48:10;;;;;;;17.52;11.60;;;;;;;13.19;61.38;95542.47;5016579;28;20037;-81
2022/05/01 06:50:36;;;;;;;15.93;10.60;;;;;;;13.30;61.63;95557.25;5032659;28;20371;-81
2022/05/01 06:53:02;;;;;;;21.65;11.10;;;;;;;12.68;62.94;95461.13;5016812;28;20072;-81
2022/05/01 06:55:28;;;;;;;25.88;12.52;;;;;;;13.29;62.45;95556.47;5015687;28;20043;-81
2022/05/01 06:57:54;;;;;;;14.25;10.02;;;;;;;13.30;61.53;95549.25;5034839;28;20036;-82
2022/05/01 07:00:21;;;;;;;18.40;10.95;;;;;;;13.86;61.70;95629.47;5034492;28;20046;-82
2022/05/01 07:02:51;;;;;;;16.95;10.18;;;;;;;13.85;61.65;95603.88;5034388;28;20037;-81
2022/05/01 07:05:18;;;;;;;21.13;11.15;;;;;;;13.52;61.53;95570.88;5034204;28;20064;-81
2022/05/01 07:07:44;;;;;;;17.80;10.90;;;;;;;13.24;62.66;95539.75;5034154;28;20523;-81
2022/05/01 07:10:10;;;;;;;15.05;10.00;;;;;;;13.52;60.82;95549.56;5034271;28;20111;-81
2022/05/01 07:12:36;;;;;;;15.02;10.15;;;;;;;14.28;60.40;95634.84;5033991;28;20217;-81
2022/05/01 07:15:02;;;;;;;16.38;9.93;;;;;;;13.86;61.44;95549.47;5034708;28;20044;-81
2022/05/01 07:17:28;;;;;;;14.80;10.90;;;;;;;13.84;60.12;95575.63;5016344;28;20044;-81
2022/05/01 07:19:54;;;;;;;11.77;9.00;;;;;;;13.59;59.79;95501.25;5034568;28;20033;-81
2022/05/01 07:22:19;;;;;;;20.00;10.88;;;;;;;13.52;59.89;95504.28;5034977;28;20067;-81
2022/05/01 07:24:45;;;;;;;13.23;9.88;;;;;;;14.41;60.61;95636.06;5016394;28;20130;-81
2022/05/01 07:27:10;;;;;;;12.88;8.02;;;;;;;14.61;58.45;95643.78;5015918;28;20044;-81
2022/05/01 07:29:36;;;;;;;12.60;9.07;;;;;;;14.53;58.58;95633.75;5034257;28;20065;-82
2022/05/01 07:32:02;;;;;;;17.10;9.80;;;;;;;14.62;58.31;95628.56;5030956;28;20477;-82
2022/05/01 07:34:27;;;;;;;13.68;9.20;;;;;;;13.59;56.49;95478.06;4996678;28;20122;-81
2022/05/01 07:36:52;;;;;;;17.38;8.55;;;;;;;14.54;55.96;95592.66;5014341;28;20037;-81
2022/05/01 07:39:18;;;;;;;13.00;8.48;;;;;;;14.12;57.74;95549.94;4996736;28;20036;-82
2022/05/01 07:41:44;;;;;;;9.32;7.78;;;;;;;14.37;57.07;95541.63;5014057;28;20064;-82
2022/05/01 07:44:11;;;;;;;13.32;8.68;;;;;;;13.55;56.85;95410.47;4996204;28;20044;-82
2022/05/01 07:46:38;;;;;;;12.88;8.38;;;;;;;14.08;57.27;95453.72;5014133;28;20041;-82
2022/05/01 07:49:04;;;;;;;15.32;9.00;;;;;;;15.16;57.24;95637.94;5029164;28;20041;-81
2022/05/01 07:51:29;;;;;;;13.43;8.57;;;;;;;15.29;55.65;95629.19;5014686;28;20570;-81
2022/05/01 07:53:58;;;;;;;13.48;8.43;;;;;;;15.17;54.73;95565.53;5013917;28;20037;-81
2022/05/01 07:56:24;;;;;;;12.55;8.48;;;;;;;15.23;54.85;95620.47;4995730;28;20566;-81
2022/05/01 07:58:50;;;;;;;9.10;7.82;;;;;;;14.55;54.31;95500.03;4995950;28;20034;-81
2022/05/01 08:01:15;;;;;;;15.63;7.65;;;;;;;14.87;54.53;95517.97;5013807;28;20044;-81
2022/05/01 08:06:24;;;;;;;11.88;7.32;;;;;;;15.64;53.77;95617.91;5013837;28;20040;-81
2022/05/01 08:08:50;;;;;;;10.73;7.25;;;;;;;14.92;52.68;95517.88;4998975;28;20034;-81
2022/05/01 08:11:15;;;;;;;9.27;6.70;;;;;;;15.51;51.71;95609.84;5017827;28;20249;-81
2022/05/01 08:13:41;;;;;;;10.93;6.38;;;;;;;15.19;52.06;95563.34;4999667;28;20033;-82
2022/05/01 08:16:06;;;;;;;9.10;6.70;;;;;;;15.37;53.37;95573.19;5018439;28;20034;-82
2022/05/01 08:21:17;;;;;;;10.75;6.30;;;;;;;15.13;51.86;95529.00;5017856;28;20543;-81
2022/05/01 08:23:42;;;;;;;8.02;6.25;;;;;;;15.68;50.45;95607.44;5017960;28;20061;-81
2022/05/01 08:26:10;;;;;;;9.45;6.18;;;;;;;15.90;50.19;95602.22;5000092;28;20033;-81
2022/05/01 08:28:38;;;;;;;10.43;6.45;;;;;;;15.82;50.08;95546.75;4999531;28;20041;-82
2022/05/01 08:31:05;;;;;;;14.68;5.53;;;;;;;16.10;52.56;95593.78;4999194;28;20394;-81
2022/05/01 08:33:31;;;;;;;7.35;5.38;;;;;;;16.34;50.67;95595.47;5017412;28;20445;-81
2022/05/01 08:35:56;;;;;;;7.20;5.03;;;;;;;16.23;50.03;95544.06;5017636;28;20586;-82
2022/05/01 08:38:22;;;;;;;6.00;5.10;;;;;;;16.63;47.80;95600.53;5018183;28;20432;-82
2022/05/01 08:40:50;;;;;;;6.53;4.53;;;;;;;15.78;47.34;95449.50;5032333;28;20570;-81
2022/05/01 08:43:20;;;;;;;10.18;5.25;;;;;;;15.65;48.38;95452.94;5017588;28;20110;-82
2022/05/01 08:45:52;;;;;;;6.32;4.45;;;;;;;16.75;47.52;95582.81;4999531;28;20567;-82
2022/05/01 08:48:29;;;;;;;5.90;4.80;;;;;;;16.27;45.78;95512.13;4999433;28;20037;-82
2022/05/01 08:50:55;;;;;;;8.40;4.90;;;;;;;16.21;44.32;95501.53;5017385;28;20037;-81
2022/05/01 08:53:23;;;;;;;7.55;4.57;;;;;;;16.89;45.15;95591.59;5017286;28;20041;-82
2022/05/01 08:55:50;;;;;;;6.38;4.65;;;;;;;16.20;44.29;95467.84;5017337;28;20045;-81
2022/05/01 08:58:16;;;;;;;6.32;4.63;;;;;;;16.05;46.60;95437.94;5017021;28;20037;-81
2022/05/01 09:00:42;;;;;;;5.60;3.53;;;;;;;16.71;44.62;95530.16;5032368;28;20398;-82
2022/05/01 09:03:07;;;;;;;9.27;3.85;;;;;;;16.97;43.24;95547.22;5017605;28;20045;-82
2022/05/01 09:05:33;;;;;;;8.30;3.20;;;;;;;17.02;43.90;95532.91;5017271;28;20048;-81
2022/05/01 09:07:59;;;;;;;6.13;3.30;;;;;;;16.49;42.34;95443.34;5031744;28;20120;-82
2022/05/01 09:10:31;;;;;;;6.82;3.08;;;;;;;16.94;41.49;95521.03;5016947;28;20309;-82
2022/05/01 09:12:57;;;;;;;4.68;2.80;;;;;;;17.25;41.42;95523.75;5018088;28;20103;-81
2022/05/01 09:15:35;;;;;;;3.42;2.50;;;;;;;17.14;40.09;95517.88;4998947;28;20045;-82
2022/05/01 09:18:06;;;;;;;6.65;3.20;;;;;;;17.52;40.95;95561.13;5016821;28;20147;-81
2022/05/01 09:20:32;;;;;;;3.40;2.23;;;;;;;17.08;40.23;95465.50;4998324;28;20056;-82
2022/05/01 09:22:59;;;;;;;2.90;2.60;;;;;;;16.97;40.97;95421.31;4997809;28;20053;-82
2022/05/01 09:25:27;;;;;;;7.57;3.10;;;;;;;17.63;40.66;95519.56;5016363;28;20573;-81
2022/05/01 09:27:59;;;;;;;6.40;2.50;;;;;;;17.62;39.42;95490.41;4998359;28;20127;-82
2022/05/01 09:30:34;;;;;;;5.28;3.00;;;;;;;18.19;39.60;95544.84;5016531;28;20037;-82
2022/05/01 09:33:01;;;;;;;7.03;2.80;;;;;;;17.99;40.81;95523.97;4998596;28;20033;-82
2022/05/01 09:35:36;;;;;;;3.25;2.92;;;;;;;18.26;41.34;95534.44;5016582;28;20067;-82
2022/05/01 09:38:26;;;;;;;6.40;3.40;;;;;;;18.27;40.26;95503.81;5016242;28;20040;-82
2022/05/01 09:40:57;;;;;;;3.17;2.50;;;;;;;18.39;38.07;95505.88;5016293;28;20517;-81
2022/05/01 09:43:38;;;;;;;11.68;3.00;;;;;;;18.61;37.84;95486.97;5016786;28;20099;-82
2022/05/01 09:46:23;;;;;;;3.85;2.35;;;;;;;18.60;36.60;95461.22;5016131;28;20037;-82
2022/05/01 09:49:09;;;;;;;3.50;2.47;;;;;;;18.25;37.95;95433.53;5017252;28;20324;-82
2022/05/01 09:51:38;;;;;;;8.43;2.60;;;;;;;18.77;38.12;95477.28;4997955;28;20087;-82
2022/05/01 09:54:05;;;;;;;5.93;2.15;;;;;;;18.88;35.79;95406.00;4998220;28;20044;-82
2022/05/01 09:56:57;;;;;;;4.93;3.10;;;;;;;20.44;34.61;95510.28;4998697;28;20851;-82
2022/05/01 09:59:26;;;;;;;6.60;2.67;;;;;;;20.66;33.33;95508.06;5016378;28;20601;-82
2022/05/01 10:02:06;;;;;;;3.33;2.10;;;;;;;20.97;31.50;95506.84;5029294;28;20035;-82
2022/05/01 10:04:37;;;;;;;5.65;2.80;;;;;;;21.85;32.35;95517.19;5035890;28;20037;-82
2022/05/01 10:07:04;;;;;;;5.87;3.03;;;;;;;22.25;31.88;95507.31;5017094;28;20028;-82
2022/05/01 10:09:34;;;;;;;10.82;2.17;;;;;;;22.96;32.19;95503.25;5017860;28;20427;-82
2022/05/01 10:12:05;;;;;;;2.63;2.13;;;;;;;23.20;28.64;95407.63;5017098;28;20133;-81
2022/05/01 10:14:30;;;;;;;5.00;2.15;;;;;;;24.59;28.26;95483.72;5017668;28;20236;-82
2022/05/01 10:17:00;;;;;;;6.03;2.95;;;;;;;24.45;28.19;95431.91;5035636;28;20076;-82
2022/05/01 10:19:26;;;;;;;8.73;2.75;;;;;;;24.77;27.91;95480.59;5035147;28;20040;-81
2022/05/01 10:21:59;;;;;;;3.53;2.80;;;;;;;24.32;28.08;95397.94;5035963;28;20045;-81
2022/05/01 10:24:26;;;;;;;5.35;1.73;;;;;;;25.22;26.70;95469.88;5035271;28;20641;-81
2022/05/01 10:27:06;;;;;;;3.58;2.28;;;;;;;25.24;26.31;95413.31;5035119;28;20033;-82
2022/05/01 10:32:20;;;;;;;5.32;2.15;;;;;;;25.25;23.88;95379.59;5016450;28;20032;-82
2022/05/01 10:32:56;;;;;;;5.25;2.15;;;;;;;26.09;25.42;95477.19;5034557;28;20549;-82
2022/05/01 10:35:45;;;;;;;4.28;2.42;;;;;;;26.36;25.85;95467.16;5017265;28;20434;-81
2022/05/01 10:38:25;;;;;;;4.90;2.45;;;;;;;25.42;26.27;95407.38;5035110;28;20066;-82
2022/05/01 10:40:56;;;;;;;3.33;2.13;;;;;;;25.80;25.24;95431.72;5035117;28;20453;-81
2022/05/01 10:43:37;;;;;;;3.60;2.17;;;;;;;25.82;24.72;95469.41;5034575;28;20099;-81
2022/05/01 10:46:21;;;;;;;3.30;1.77;;;;;;;26.34;23.49;95446.91;5016529;28;20041;-82
2022/05/01 10:48:47;;;;;;;5.90;2.05;;;;;;;26.33;24.44;95457.00;5016827;28;20087;-82
2022/05/01 10:51:31;;;;;;;3.35;1.90;;;;;;;26.60;23.78;95446.88;5016864;28;20123;-82
2022/05/01 10:54:15;;;;;;;2.17;1.77;;;;;;;25.98;27.68;95443.66;5017274;28;20407;-81
2022/05/01 10:56:44;;;;;;;3.83;2.13;;;;;;;26.36;26.97;95444.63;5034826;28;20122;-82
2022/05/01 10:59:33;;;;;;;4.53;2.10;;;;;;;26.22;24.48;95442.47;5034436;28;20041;-82
2022/05/01 11:02:04;;;;;;;4.32;2.42;;;;;;;25.75;25.39;95369.56;5016717;28;20465;-82
2022/05/01 11:04:42;;;;;;;4.97;2.13;;;;;;;26.19;23.34;95390.75;5015796;28;20118;-82
2022/05/01 11:07:10;;;;;;;2.08;1.85;;;;;;;26.05;22.91;95418.50;5016013;28;20138;-81
2022/05/01 11:09:37;;;;;;;6.28;2.17;;;;;;;25.76;25.32;95365.69;5034624;28;20502;-82
2022/05/01 11:12:07;;;;;;;5.63;2.40;;;;;;;26.27;25.61;95414.97;5034451;28;20611;-82
2022/05/01 11:14:39;;;;;;;2.90;2.10;;;;;;;25.43;25.85;95324.81;5016294;28;20036;-82
2022/05/01 11:17:06;;;;;;;2.88;1.77;;;;;;;25.55;25.24;95324.63;5016420;28;20098;-82
2022/05/01 11:19:46;;;;;;;3.40;2.00;;;;;;;25.82;25.28;95320.75;5034467;28;20040;-81
2022/05/01 11:22:13;;;;;;;4.10;2.05;;;;;;;26.49;24.64;95399.72;5034456;28;21016;-81
2022/05/01 11:24:45;;;;;;;5.78;2.33;;;;;;;26.40;25.44;95419.03;5015825;28;20061;-82
2022/05/01 11:27:11;;;;;;;6.55;2.40;;;;;;;26.36;24.84;95422.88;5034274;28;20041;-82
2022/05/01 11:29:37;;;;;;;4.18;2.55;;;;;;;25.55;26.48;95330.03;5016603;28;20051;-83
2022/05/01 11:32:19;;;;;;;3.85;2.20;;;;;;;25.32;26.69;95338.22;5019586;28;20032;-82
2022/05/01 11:34:52;;;;;;;3.58;2.20;;;;;;;25.27;26.62;95333.09;5016472;28;20143;-81
2022/05/01 11:37:18;;;;;;;4.63;2.03;;;;;;;25.24;24.33;95328.41;5034274;28;20562;-82
2022/05/01 11:39:47;;;;;;;3.10;2.15;;;;;;;26.16;26.92;95400.44;5034680;28;20552;-82
2022/05/01 11:42:25;;;;;;;2.05;1.85;;;;;;;26.77;25.18;95396.56;5033014;28;20041;-82
2022/05/01 11:44:54;;;;;;;5.38;2.50;;;;;;;25.56;25.32;95296.28;5033811;28;20041;-82
2022/05/01 11:47:24;;;;;;;6.05;2.47;;;;;;;26.12;26.55;95400.38;5015760;28;20052;-82
2022/05/01 11:49:52;;;;;;;2.90;2.05;;;;;;;25.08;25.10;95360.28;5034183;28;20134;-82